Terminal Aerodrome Forecast
Issued by NWS

Home | Current Version | Previous Version | Text Only | Print | Product List | Glossary On
Versions: 1 2 3 4 5 6 7 8 9 10 11 12 13 14 15 16
000
FTUS41 KBOX 030808 AAA
TAFBED
TAF AMD
KBED 030808Z 0308/0406 00000KT P6SM -RA BKN090
     FM031000 VRB03KT 6SM -RA BR OVC008
     FM031500 06004KT 5SM BR VCSH OVC010
     FM032200 07004KT 5SM BR VCSH BKN045=

USA.gov is the U.S. government's official web portal to all federal, state and local government web resources and services.